sensor_id;sensor_type;location;lat;lon;timestamp;pressure;altitude;pressure_sealevel;temperature
34310;BMP280;61664;48.112;11.662;2023-06-19T00:01:09;95262.19;;;25.87
34310;BMP280;61664;48.112;11.662;2023-06-19T00:03:36;95259.00;;;25.81
34310;BMP280;61664;48.112;11.662;2023-06-19T00:06:05;95264.34;;;25.79
34310;BMP280;61664;48.112;11.662;2023-06-19T00:08:32;95268.75;;;25.74
34310;BMP280;61664;48.112;11.662;2023-06-19T00:10:59;95271.34;;;25.72
34310;BMP280;61664;48.112;11.662;2023-06-19T00:13:26;95264.84;;;25.68
34310;BMP280;61664;48.112;11.662;2023-06-19T00:15:53;95264.16;;;25.77
34310;BMP280;61664;48.112;11.662;2023-06-19T00:18:20;95262.13;;;25.77
34310;BMP280;61664;48.112;11.662;2023-06-19T00:20:47;95254.78;;;25.70
34310;BMP280;61664;48.112;11.662;2023-06-19T00:23:14;95249.38;;;25.63
34310;BMP280;61664;48.112;11.662;2023-06-19T00:25:44;95259.75;;;25.64
34310;BMP280;61664;48.112;11.662;2023-06-19T00:28:11;95261.34;;;25.67
34310;BMP280;61664;48.112;11.662;2023-06-19T00:30:41;95258.78;;;25.69
34310;BMP280;61664;48.112;11.662;2023-06-19T00:33:09;95265.88;;;25.72
34310;BMP280;61664;48.112;11.662;2023-06-19T00:35:36;95260.41;;;25.72
34310;BMP280;61664;48.112;11.662;2023-06-19T00:38:05;95261.41;;;25.77
34310;BMP280;61664;48.112;11.662;2023-06-19T00:40:33;95256.81;;;25.79
34310;BMP280;61664;48.112;11.662;2023-06-19T00:43:01;95251.53;;;25.81
34310;BMP280;61664;48.112;11.662;2023-06-19T00:45:28;95251.19;;;25.77
34310;BMP280;61664;48.112;11.662;2023-06-19T00:47:58;95255.94;;;25.77
34310;BMP280;61664;48.112;11.662;2023-06-19T00:50:28;95259.56;;;25.79
34310;BMP280;61664;48.112;11.662;2023-06-19T00:52:55;95256.81;;;25.79
34310;BMP280;61664;48.112;11.662;2023-06-19T00:55:26;95264.19;;;25.86
34310;BMP280;61664;48.112;11.662;2023-06-19T00:57:55;95266.06;;;25.84
34310;BMP280;61664;48.112;11.662;2023-06-19T01:00:22;95266.88;;;25.77
34310;BMP280;61664;48.112;11.662;2023-06-19T01:02:49;95265.72;;;25.70
34310;BMP280;61664;48.112;11.662;2023-06-19T01:05:17;95271.34;;;25.72
34310;BMP280;61664;48.112;11.662;2023-06-19T01:10:32;95268.44;;;25.70
34310;BMP280;61664;48.112;11.662;2023-06-19T01:13:50;95266.16;;;25.76
34310;BMP280;61664;48.112;11.662;2023-06-19T01:16:18;95272.03;;;25.73
34310;BMP280;61664;48.112;11.662;2023-06-19T01:18:46;95265.78;;;25.63
34310;BMP280;61664;48.112;11.662;2023-06-19T01:21:15;95271.13;;;25.61
34310;BMP280;61664;48.112;11.662;2023-06-19T01:23:43;95270.25;;;25.58
34310;BMP280;61664;48.112;11.662;2023-06-19T01:26:11;95259.25;;;25.48
34310;BMP280;61664;48.112;11.662;2023-06-19T01:28:43;95273.28;;;25.62
34310;BMP280;61664;48.112;11.662;2023-06-19T01:31:25;95279.19;;;25.58
34310;BMP280;61664;48.112;11.662;2023-06-19T01:33:55;95268.78;;;25.57
34310;BMP280;61664;48.112;11.662;2023-06-19T01:36:24;95274.13;;;25.55
34310;BMP280;61664;48.112;11.662;2023-06-19T01:38:54;95267.34;;;25.56
34310;BMP280;61664;48.112;11.662;2023-06-19T01:41:23;95271.84;;;25.61
34310;BMP280;61664;48.112;11.662;2023-06-19T01:43:52;95266.69;;;25.65
34310;BMP280;61664;48.112;11.662;2023-06-19T01:46:20;95274.94;;;25.75
34310;BMP280;61664;48.112;11.662;2023-06-19T01:48:47;95263.69;;;25.71
34310;BMP280;61664;48.112;11.662;2023-06-19T01:51:14;95264.16;;;25.77
34310;BMP280;61664;48.112;11.662;2023-06-19T01:53:40;95278.78;;;25.89
34310;BMP280;61664;48.112;11.662;2023-06-19T01:56:08;95280.22;;;25.90
34310;BMP280;61664;48.112;11.662;2023-06-19T01:58:35;95276.19;;;25.91
34310;BMP280;61664;48.112;11.662;2023-06-19T02:01:02;95272.16;;;25.92
34310;BMP280;61664;48.112;11.662;2023-06-19T02:03:29;95276.25;;;26.00
34310;BMP280;61664;48.112;11.662;2023-06-19T02:05:56;95279.28;;;26.05
34310;BMP280;61664;48.112;11.662;2023-06-19T02:08:23;95273.22;;;26.06
34310;BMP280;61664;48.112;11.662;2023-06-19T02:10:50;95274.53;;;26.05
34310;BMP280;61664;48.112;11.662;2023-06-19T02:13:17;95268.47;;;26.07
34310;BMP280;61664;48.112;11.662;2023-06-19T02:15:44;95264.56;;;26.00
34310;BMP280;61664;48.112;11.662;2023-06-19T02:18:11;95272.34;;;26.03
34310;BMP280;61664;48.112;11.662;2023-06-19T02:20:38;95269.75;;;26.06
34310;BMP280;61664;48.112;11.662;2023-06-19T02:23:05;95275.22;;;26.06
34310;BMP280;61664;48.112;11.662;2023-06-19T02:25:32;95270.19;;;26.02
34310;BMP280;61664;48.112;11.662;2023-06-19T02:28:01;95274.78;;;25.99
34310;BMP280;61664;48.112;11.662;2023-06-19T02:30:30;95274.94;;;26.01
34310;BMP280;61664;48.112;11.662;2023-06-19T02:32:57;95263.06;;;25.89
34310;BMP280;61664;48.112;11.662;2023-06-19T02:35:24;95269.28;;;25.90
34310;BMP280;61664;48.112;11.662;2023-06-19T02:37:50;95266.78;;;25.84
34310;BMP280;61664;48.112;11.662;2023-06-19T02:40:17;95285.34;;;25.86
34310;BMP280;61664;48.112;11.662;2023-06-19T02:42:44;95264.72;;;25.75
34310;BMP280;61664;48.112;11.662;2023-06-19T02:45:11;95269.22;;;25.80
34310;BMP280;61664;48.112;11.662;2023-06-19T02:47:38;95261.28;;;25.75
34310;BMP280;61664;48.112;11.662;2023-06-19T02:50:06;95269.94;;;25.81
34310;BMP280;61664;48.112;11.662;2023-06-19T02:52:33;95269.22;;;25.80
34310;BMP280;61664;48.112;11.662;2023-06-19T02:54:59;95276.44;;;25.85
34310;BMP280;61664;48.112;11.662;2023-06-19T02:57:26;95283.34;;;25.86
34310;BMP280;61664;48.112;11.662;2023-06-19T02:59:53;95268.66;;;25.82
34310;BMP280;61664;48.112;11.662;2023-06-19T03:02:21;95265.88;;;25.72
34310;BMP280;61664;48.112;11.662;2023-06-19T03:04:48;95276.09;;;25.72
34310;BMP280;61664;48.112;11.662;2023-06-19T03:07:15;95275.03;;;25.67
34310;BMP280;61664;48.112;11.662;2023-06-19T03:09:43;95271.22;;;25.53
34310;BMP280;61664;48.112;11.662;2023-06-19T03:12:10;95272.84;;;25.39
34310;BMP280;61664;48.112;11.662;2023-06-19T03:14:37;95280.75;;;25.35
34310;BMP280;61664;48.112;11.662;2023-06-19T03:17:04;95277.91;;;25.25
34310;BMP280;61664;48.112;11.662;2023-06-19T03:19:31;95268.22;;;25.14
34310;BMP280;61664;48.112;11.662;2023-06-19T03:21:58;95267.50;;;25.14
34310;BMP280;61664;48.112;11.662;2023-06-19T03:24:28;95266.28;;;25.07
34310;BMP280;61664;48.112;11.662;2023-06-19T03:26:55;95279.56;;;25.11
34310;BMP280;61664;48.112;11.662;2023-06-19T03:29:22;95288.31;;;25.09
34310;BMP280;61664;48.112;11.662;2023-06-19T03:31:49;95284.31;;;25.10
34310;BMP280;61664;48.112;11.662;2023-06-19T03:34:17;95284.31;;;25.10
34310;BMP280;61664;48.112;11.662;2023-06-19T03:36:44;95302.78;;;25.20
34310;BMP280;61664;48.112;11.662;2023-06-19T03:39:11;95307.28;;;25.25
34310;BMP280;61664;48.112;11.662;2023-06-19T03:41:37;95301.66;;;25.23
34310;BMP280;61664;48.112;11.662;2023-06-19T03:44:04;95296.75;;;25.21
34310;BMP280;61664;48.112;11.662;2023-06-19T03:46:31;95303.09;;;25.24
34310;BMP280;61664;48.112;11.662;2023-06-19T03:48:58;95306.38;;;25.22
34310;BMP280;61664;48.112;11.662;2023-06-19T03:51:25;95313.78;;;25.29
34310;BMP280;61664;48.112;11.662;2023-06-19T03:53:52;95313.06;;;25.29
34310;BMP280;61664;48.112;11.662;2023-06-19T03:56:20;95311.22;;;25.31
34310;BMP280;61664;48.112;11.662;2023-06-19T03:58:46;95322.88;;;25.32
34310;BMP280;61664;48.112;11.662;2023-06-19T04:01:13;95319.16;;;25.37
34310;BMP280;61664;48.112;11.662;2023-06-19T04:03:40;95323.69;;;25.42
34310;BMP280;61664;48.112;11.662;2023-06-19T04:08:35;95324.72;;;25.46
34310;BMP280;61664;48.112;11.662;2023-06-19T04:11:02;95325.06;;;25.50
34310;BMP280;61664;48.112;11.662;2023-06-19T04:13:29;95331.81;;;25.49
34310;BMP280;61664;48.112;11.662;2023-06-19T04:15:55;95341.91;;;25.56
34310;BMP280;61664;48.112;11.662;2023-06-19T04:18:22;95335.72;;;25.56
34310;BMP280;61664;48.112;11.662;2023-06-19T04:20:49;95336.44;;;25.56
34310;BMP280;61664;48.112;11.662;2023-06-19T04:23:16;95342.13;;;25.58
34310;BMP280;61664;48.112;11.662;2023-06-19T04:25:43;95341.53;;;25.60
34310;BMP280;61664;48.112;11.662;2023-06-19T04:28:10;95345.84;;;25.63
34310;BMP280;61664;48.112;11.662;2023-06-19T04:30:37;95348.59;;;25.63
34310;BMP280;61664;48.112;11.662;2023-06-19T04:33:06;95344.50;;;25.54
34310;BMP280;61664;48.112;11.662;2023-06-19T04:35:34;95356.19;;;25.55
34310;BMP280;61664;48.112;11.662;2023-06-19T04:38:07;95359.88;;;25.50
34310;BMP280;61664;48.112;11.662;2023-06-19T04:40:35;95363.59;;;25.45
34310;BMP280;61664;48.112;11.662;2023-06-19T04:43:02;95351.84;;;25.35
34310;BMP280;61664;48.112;11.662;2023-06-19T04:45:29;95362.78;;;25.35
34310;BMP280;61664;48.112;11.662;2023-06-19T04:47:56;95350.13;;;25.22
34310;BMP280;61664;48.112;11.662;2023-06-19T04:50:23;95360.50;;;25.24
34310;BMP280;61664;48.112;11.662;2023-06-19T04:52:50;95371.13;;;25.20
34310;BMP280;61664;48.112;11.662;2023-06-19T04:55:18;95380.63;;;25.19
34310;BMP280;61664;48.112;11.662;2023-06-19T04:57:45;95381.72;;;25.15
34310;BMP280;61664;48.112;11.662;2023-06-19T05:00:13;95382.44;;;25.16
34310;BMP280;61664;48.112;11.662;2023-06-19T05:02:42;95405.03;;;25.16
34310;BMP280;61664;48.112;11.662;2023-06-19T05:05:14;95412.28;;;25.22
34310;BMP280;61664;48.112;11.662;2023-06-19T05:07:41;95409.56;;;25.22
34310;BMP280;61664;48.112;11.662;2023-06-19T05:10:09;95387.19;;;25.15
34310;BMP280;61664;48.112;11.662;2023-06-19T05:12:37;95403.59;;;25.15
34310;BMP280;61664;48.112;11.662;2023-06-19T05:15:04;95412.47;;;25.24
34310;BMP280;61664;48.112;11.662;2023-06-19T05:17:31;95413.69;;;25.30
34310;BMP280;61664;48.112;11.662;2023-06-19T05:19:59;95418.56;;;25.32
34310;BMP280;61664;48.112;11.662;2023-06-19T05:22:25;95411.88;;;25.25
34310;BMP280;61664;48.112;11.662;2023-06-19T05:24:53;95425.28;;;25.38
34310;BMP280;61664;48.112;11.662;2023-06-19T05:27:20;95409.28;;;25.35
34310;BMP280;61664;48.112;11.662;2023-06-19T05:29:47;95410.91;;;25.38
34310;BMP280;61664;48.112;11.662;2023-06-19T05:32:14;95417.97;;;25.41
34310;BMP280;61664;48.112;11.662;2023-06-19T05:34:41;95425.91;;;25.46
34310;BMP280;61664;48.112;11.662;2023-06-19T05:37:08;95430.44;;;25.51
34310;BMP280;61664;48.112;11.662;2023-06-19T05:39:35;95424.72;;;25.57
34310;BMP280;61664;48.112;11.662;2023-06-19T05:42:02;95437.44;;;25.62
34310;BMP280;61664;48.112;11.662;2023-06-19T05:44:29;95435.34;;;25.70
34310;BMP280;61664;48.112;11.662;2023-06-19T05:46:56;95440.00;;;25.77
34310;BMP280;61664;48.112;11.662;2023-06-19T05:49:23;95445.41;;;25.85
34310;BMP280;61664;48.112;11.662;2023-06-19T05:51:49;95438.22;;;25.89
34310;BMP280;61664;48.112;11.662;2023-06-19T05:54:16;95452.72;;;25.99
34310;BMP280;61664;48.112;11.662;2023-06-19T05:56:44;95456.63;;;26.06
34310;BMP280;61664;48.112;11.662;2023-06-19T05:59:11;95449.34;;;26.09
34310;BMP280;61664;48.112;11.662;2023-06-19T06:01:41;95456.69;;;26.16
34310;BMP280;61664;48.112;11.662;2023-06-19T06:04:08;95449.63;;;26.13
34310;BMP280;61664;48.112;11.662;2023-06-19T06:06:35;95456.31;;;26.19
34310;BMP280;61664;48.112;11.662;2023-06-19T06:09:02;95454.47;;;26.22
34310;BMP280;61664;48.112;11.662;2023-06-19T06:11:29;95456.38;;;26.29
34310;BMP280;61664;48.112;11.662;2023-06-19T06:13:56;95471.66;;;26.32
34310;BMP280;61664;48.112;11.662;2023-06-19T06:16:23;95464.91;;;26.33
34310;BMP280;61664;48.112;11.662;2023-06-19T06:18:50;95463.63;;;26.34
34310;BMP280;61664;48.112;11.662;2023-06-19T06:21:17;95467.56;;;26.40
34310;BMP280;61664;48.112;11.662;2023-06-19T06:23:44;95474.03;;;26.45
34310;BMP280;61664;48.112;11.662;2023-06-19T06:26:11;95464.69;;;26.48
34310;BMP280;61664;48.112;11.662;2023-06-19T06:28:38;95474.25;;;26.57
34310;BMP280;61664;48.112;11.662;2023-06-19T06:31:06;95468.38;;;26.60
34310;BMP280;61664;48.112;11.662;2023-06-19T06:33:33;95473.19;;;26.69
34310;BMP280;61664;48.112;11.662;2023-06-19T06:36:01;95479.09;;;26.75
34310;BMP280;61664;48.112;11.662;2023-06-19T06:38:28;95486.34;;;26.80
34310;BMP280;61664;48.112;11.662;2023-06-19T06:40:55;95485.06;;;26.81
34310;BMP280;61664;48.112;11.662;2023-06-19T06:43:22;95481.28;;;26.77
34310;BMP280;61664;48.112;11.662;2023-06-19T06:45:49;95492.56;;;26.81
34310;BMP280;61664;48.112;11.662;2023-06-19T06:48:17;95492.72;;;26.83
34310;BMP280;61664;48.112;11.662;2023-06-19T06:50:44;95495.03;;;26.86
34310;BMP280;61664;48.112;11.662;2023-06-19T06:53:11;95509.22;;;26.93
34310;BMP280;61664;48.112;11.662;2023-06-19T06:55:38;95502.91;;;27.00
34310;BMP280;61664;48.112;11.662;2023-06-19T06:58:05;95501.84;;;26.95
34310;BMP280;61664;48.112;11.662;2023-06-19T07:00:32;95517.34;;;27.10
34310;BMP280;61664;48.112;11.662;2023-06-19T07:02:59;95512.50;;;27.18
34310;BMP280;61664;48.112;11.662;2023-06-19T07:05:26;95521.16;;;27.24
34310;BMP280;61664;48.112;11.662;2023-06-19T07:07:55;95506.31;;;27.37
34310;BMP280;61664;48.112;11.662;2023-06-19T07:10:22;95517.16;;;27.54
34310;BMP280;61664;48.112;11.662;2023-06-19T07:12:50;95516.22;;;27.68
34310;BMP280;61664;48.112;11.662;2023-06-19T07:15:18;95510.72;;;27.78
34310;BMP280;61664;48.112;11.662;2023-06-19T07:17:46;95516.63;;;27.94
34310;BMP280;61664;48.112;11.662;2023-06-19T07:20:14;95522.84;;;28.04
34310;BMP280;61664;48.112;11.662;2023-06-19T07:22:43;95515.47;;;28.06
34310;BMP280;61664;48.112;11.662;2023-06-19T07:25:11;95527.78;;;28.15
34310;BMP280;61664;48.112;11.662;2023-06-19T07:27:40;95517.22;;;28.21
34310;BMP280;61664;48.112;11.662;2023-06-19T07:30:08;95510.84;;;28.28
34310;BMP280;61664;48.112;11.662;2023-06-19T07:32:35;95510.25;;;28.39
34310;BMP280;61664;48.112;11.662;2023-06-19T07:35:04;95522.34;;;28.55
34310;BMP280;61664;48.112;11.662;2023-06-19T07:37:31;95517.13;;;28.69
34310;BMP280;61664;48.112;11.662;2023-06-19T07:40:01;95514.13;;;28.86
34310;BMP280;61664;48.112;11.662;2023-06-19T07:42:28;95516.25;;;29.07
34310;BMP280;61664;48.112;11.662;2023-06-19T07:45:04;95513.22;;;29.24
34310;BMP280;61664;48.112;11.662;2023-06-19T07:47:31;95517.06;;;29.40
34310;BMP280;61664;48.112;11.662;2023-06-19T07:49:58;95518.44;;;29.51
34310;BMP280;61664;48.112;11.662;2023-06-19T07:52:25;95511.91;;;29.56
34310;BMP280;61664;48.112;11.662;2023-06-19T07:54:55;95513.50;;;29.71
34310;BMP280;61664;48.112;11.662;2023-06-19T07:57:24;95515.13;;;29.85
34310;BMP280;61664;48.112;11.662;2023-06-19T07:59:54;95513.75;;;29.96
34310;BMP280;61664;48.112;11.662;2023-06-19T08:02:21;95522.56;;;30.16
34310;BMP280;61664;48.112;11.662;2023-06-19T08:04:48;95514.56;;;30.31
34310;BMP280;61664;48.112;11.662;2023-06-19T08:07:16;95523.38;;;30.51
34310;BMP280;61664;48.112;11.662;2023-06-19T08:09:43;95517.97;;;30.65
34310;BMP280;61664;48.112;11.662;2023-06-19T08:12:10;95522.78;;;30.76
34310;BMP280;61664;48.112;11.662;2023-06-19T08:14:37;95529.03;;;30.88
34310;BMP280;61664;48.112;11.662;2023-06-19T08:17:05;95512.69;;;30.92
34310;BMP280;61664;48.112;11.662;2023-06-19T08:19:32;95524.81;;;31.10
34310;BMP280;61664;48.112;11.662;2023-06-19T08:21:59;95517.03;;;31.18
34310;BMP280;61664;48.112;11.662;2023-06-19T08:24:26;95527.31;;;31.29
34310;BMP280;61664;48.112;11.662;2023-06-19T08:26:54;95533.28;;;31.49
34310;BMP280;61664;48.112;11.662;2023-06-19T08:29:20;95532.03;;;31.64
34310;BMP280;61664;48.112;11.662;2023-06-19T08:31:47;95527.78;;;31.74
34310;BMP280;61664;48.112;11.662;2023-06-19T08:34:14;95543.84;;;31.89
34310;BMP280;61664;48.112;11.662;2023-06-19T08:36:41;95539.41;;;31.84
34310;BMP280;61664;48.112;11.662;2023-06-19T08:39:08;95523.88;;;31.66
34310;BMP280;61664;48.112;11.662;2023-06-19T08:41:39;95519.78;;;31.67
34310;BMP280;61664;48.112;11.662;2023-06-19T08:44:08;95525.63;;;31.73
34310;BMP280;61664;48.112;11.662;2023-06-19T08:46:35;95529.41;;;31.66
34310;BMP280;61664;48.112;11.662;2023-06-19T08:49:05;95521.03;;;31.52
34310;BMP280;61664;48.112;11.662;2023-06-19T08:51:33;95534.56;;;31.60
34310;BMP280;61664;48.112;11.662;2023-06-19T08:54:04;95531.56;;;31.92
34310;BMP280;61664;48.112;11.662;2023-06-19T08:56:32;95527.31;;;32.03
34310;BMP280;61664;48.112;11.662;2023-06-19T08:59:15;95523.38;;;32.72
34310;BMP280;61664;48.112;11.662;2023-06-19T09:01:51;95517.16;;;33.85
34310;BMP280;61664;48.112;11.662;2023-06-19T09:04:21;95509.34;;;35.06
34310;BMP280;61664;48.112;11.662;2023-06-19T09:06:56;95515.41;;;36.27
34310;BMP280;61664;48.112;11.662;2023-06-19T09:09:26;95506.63;;;36.74
34310;BMP280;61664;48.112;11.662;2023-06-19T09:12:08;95511.53;;;36.95
34310;BMP280;61664;48.112;11.662;2023-06-19T09:14:42;95504.59;;;37.39
34310;BMP280;61664;48.112;11.662;2023-06-19T09:17:19;95511.28;;;38.23
34310;BMP280;61664;48.112;11.662;2023-06-19T09:19:52;95505.38;;;39.20
34310;BMP280;61664;48.112;11.662;2023-06-19T09:22:22;95502.47;;;39.43
34310;BMP280;61664;48.112;11.662;2023-06-19T09:24:50;95513.19;;;39.23
34310;BMP280;61664;48.112;11.662;2023-06-19T09:27:19;95517.34;;;38.67
34310;BMP280;61664;48.112;11.662;2023-06-19T09:29:50;95512.44;;;38.39
34310;BMP280;61664;48.112;11.662;2023-06-19T09:32:20;95523.44;;;38.59
34310;BMP280;61664;48.112;11.662;2023-06-19T09:34:50;95515.63;;;39.39
34310;BMP280;61664;48.112;11.662;2023-06-19T09:37:23;95509.47;;;40.46
34310;BMP280;61664;48.112;11.662;2023-06-19T09:40:03;95509.13;;;41.09
34310;BMP280;61664;48.112;11.662;2023-06-19T09:42:42;95505.94;;;40.85
34310;BMP280;61664;48.112;11.662;2023-06-19T09:45:12;95503.28;;;40.53
34310;BMP280;61664;48.112;11.662;2023-06-19T09:47:46;95503.47;;;41.07
34310;BMP280;61664;48.112;11.662;2023-06-19T09:50:16;95506.66;;;41.81
34310;BMP280;61664;48.112;11.662;2023-06-19T09:52:44;95506.94;;;42.78
34310;BMP280;61664;48.112;11.662;2023-06-19T09:55:12;95503.31;;;43.71
34310;BMP280;61664;48.112;11.662;2023-06-19T09:57:41;95488.69;;;44.41
34310;BMP280;61664;48.112;11.662;2023-06-19T10:00:11;95495.69;;;45.11
34310;BMP280;61664;48.112;11.662;2023-06-19T10:02:49;95490.56;;;45.68
34310;BMP280;61664;48.112;11.662;2023-06-19T10:05:16;95512.81;;;46.26
34310;BMP280;61664;48.112;11.662;2023-06-19T10:07:46;95497.75;;;46.56
34310;BMP280;61664;48.112;11.662;2023-06-19T10:10:24;95501.09;;;46.72
34310;BMP280;61664;48.112;11.662;2023-06-19T10:13:11;95499.09;;;47.32
34310;BMP280;61664;48.112;11.662;2023-06-19T10:15:42;95499.09;;;47.85
34310;BMP280;61664;48.112;11.662;2023-06-19T10:18:16;95499.19;;;48.25
34310;BMP280;61664;48.112;11.662;2023-06-19T10:20:45;95502.94;;;48.57
34310;BMP280;61664;48.112;11.662;2023-06-19T10:23:23;95502.34;;;48.89
34310;BMP280;61664;48.112;11.662;2023-06-19T10:28:33;95493.03;;;49.29
34310;BMP280;61664;48.112;11.662;2023-06-19T10:31:06;95494.53;;;49.59
34310;BMP280;61664;48.112;11.662;2023-06-19T10:33:36;95493.16;;;49.88
34310;BMP280;61664;48.112;11.662;2023-06-19T10:36:19;95493.78;;;50.22
34310;BMP280;61664;48.112;11.662;2023-06-19T10:38:46;95485.97;;;50.51
34310;BMP280;61664;48.112;11.662;2023-06-19T10:41:24;95493.41;;;50.64
34310;BMP280;61664;48.112;11.662;2023-06-19T10:44:03;95489.19;;;50.88
34310;BMP280;61664;48.112;11.662;2023-06-19T10:46:36;95482.63;;;51.20
34310;BMP280;61664;48.112;11.662;2023-06-19T10:49:05;95486.28;;;51.39
34310;BMP280;61664;48.112;11.662;2023-06-19T10:51:37;95480.22;;;51.29
34310;BMP280;61664;48.112;11.662;2023-06-19T10:54:06;95475.72;;;50.62
34310;BMP280;61664;48.112;11.662;2023-06-19T10:56:33;95484.97;;;50.34
34310;BMP280;61664;48.112;11.662;2023-06-19T10:59:07;95482.38;;;50.24
34310;BMP280;61664;48.112;11.662;2023-06-19T11:01:42;95480.94;;;50.25
34310;BMP280;61664;48.112;11.662;2023-06-19T11:04:11;95470.59;;;50.40
34310;BMP280;61664;48.112;11.662;2023-06-19T11:06:40;95463.44;;;50.41
34310;BMP280;61664;48.112;11.662;2023-06-19T11:09:10;95457.78;;;50.41
34310;BMP280;61664;48.112;11.662;2023-06-19T11:11:48;95456.69;;;50.28
34310;BMP280;61664;48.112;11.662;2023-06-19T11:14:16;95456.69;;;50.28
34310;BMP280;61664;48.112;11.662;2023-06-19T11:16:46;95456.31;;;50.15
34310;BMP280;61664;48.112;11.662;2023-06-19T11:19:20;95446.28;;;49.89
34310;BMP280;61664;48.112;11.662;2023-06-19T11:21:51;95452.75;;;49.55
34310;BMP280;61664;48.112;11.662;2023-06-19T11:24:19;95449.50;;;49.08
34310;BMP280;61664;48.112;11.662;2023-06-19T11:26:50;95451.13;;;48.19
34310;BMP280;61664;48.112;11.662;2023-06-19T11:29:24;95432.84;;;47.11
34310;BMP280;61664;48.112;11.662;2023-06-19T11:32:06;95443.75;;;46.03
34310;BMP280;61664;48.112;11.662;2023-06-19T11:34:36;95445.63;;;45.09
34310;BMP280;61664;48.112;11.662;2023-06-19T11:37:17;95443.59;;;44.11
34310;BMP280;61664;48.112;11.662;2023-06-19T11:39:46;95457.44;;;43.43
34310;BMP280;61664;48.112;11.662;2023-06-19T11:42:14;95452.81;;;42.73
34310;BMP280;61664;48.112;11.662;2023-06-19T11:45:00;95438.75;;;41.95
34310;BMP280;61664;48.112;11.662;2023-06-19T11:47:32;95445.13;;;41.40
34310;BMP280;61664;48.112;11.662;2023-06-19T11:50:03;95443.72;;;40.93
34310;BMP280;61664;48.112;11.662;2023-06-19T11:52:30;95438.00;;;40.41
34310;BMP280;61664;48.112;11.662;2023-06-19T11:54:57;95422.63;;;40.04
34310;BMP280;61664;48.112;11.662;2023-06-19T11:57:24;95430.66;;;39.86
34310;BMP280;61664;48.112;11.662;2023-06-19T11:59:53;95440.66;;;39.61
34310;BMP280;61664;48.112;11.662;2023-06-19T12:02:20;95435.34;;;39.41
34310;BMP280;61664;48.112;11.662;2023-06-19T12:04:47;95434.56;;;39.39
34310;BMP280;61664;48.112;11.662;2023-06-19T12:07:14;95436.09;;;39.44
34310;BMP280;61664;48.112;11.662;2023-06-19T12:09:42;95446.19;;;39.59
34310;BMP280;61664;48.112;11.662;2023-06-19T12:12:10;95440.91;;;39.73
34310;BMP280;61664;48.112;11.662;2023-06-19T12:14:37;95431.41;;;39.88
34310;BMP280;61664;48.112;11.662;2023-06-19T12:17:04;95431.75;;;40.06
34310;BMP280;61664;48.112;11.662;2023-06-19T12:19:31;95424.94;;;40.15
34310;BMP280;61664;48.112;11.662;2023-06-19T12:21:58;95436.94;;;40.20
34310;BMP280;61664;48.112;11.662;2023-06-19T12:24:25;95434.03;;;40.16
34310;BMP280;61664;48.112;11.662;2023-06-19T12:26:52;95420.00;;;40.12
34310;BMP280;61664;48.112;11.662;2023-06-19T12:29:19;95427.63;;;40.09
34310;BMP280;61664;48.112;11.662;2023-06-19T12:31:47;95425.47;;;40.08
34310;BMP280;61664;48.112;11.662;2023-06-19T12:34:14;95414.22;;;40.04
34310;BMP280;61664;48.112;11.662;2023-06-19T12:36:56;95416.19;;;39.97
34310;BMP280;61664;48.112;11.662;2023-06-19T12:39:24;95410.41;;;39.87
34310;BMP280;61664;48.112;11.662;2023-06-19T12:41:52;95401.72;;;39.71
34310;BMP280;61664;48.112;11.662;2023-06-19T12:44:21;95403.69;;;39.65
34310;BMP280;61664;48.112;11.662;2023-06-19T12:46:48;95401.72;;;39.39
34310;BMP280;61664;48.112;11.662;2023-06-19T12:49:15;95414.84;;;39.31
34310;BMP280;61664;48.112;11.662;2023-06-19T12:51:42;95400.38;;;39.09
34310;BMP280;61664;48.112;11.662;2023-06-19T12:54:09;95416.19;;;38.98
34310;BMP280;61664;48.112;11.662;2023-06-19T12:56:36;95404.50;;;38.76
34310;BMP280;61664;48.112;11.662;2023-06-19T12:59:03;95393.13;;;38.40
34310;BMP280;61664;48.112;11.662;2023-06-19T13:01:30;95390.66;;;38.24
34310;BMP280;61664;48.112;11.662;2023-06-19T13:03:57;95386.13;;;38.11
34310;BMP280;61664;48.112;11.662;2023-06-19T13:06:24;95385.34;;;38.09
34310;BMP280;61664;48.112;11.662;2023-06-19T13:08:52;95391.50;;;38.03
34310;BMP280;61664;48.112;11.662;2023-06-19T13:11:18;95388.00;;;38.03
34310;BMP280;61664;48.112;11.662;2023-06-19T13:13:45;95395.69;;;38.04
34310;BMP280;61664;48.112;11.662;2023-06-19T13:16:12;95389.19;;;37.96
34310;BMP280;61664;48.112;11.662;2023-06-19T13:18:41;95381.50;;;37.94
34310;BMP280;61664;48.112;11.662;2023-06-19T13:21:08;95379.69;;;38.05
34310;BMP280;61664;48.112;11.662;2023-06-19T13:23:35;95376.34;;;38.10
34310;BMP280;61664;48.112;11.662;2023-06-19T13:26:02;95378.81;;;38.24
34310;BMP280;61664;48.112;11.662;2023-06-19T13:28:29;95369.03;;;38.25
34310;BMP280;61664;48.112;11.662;2023-06-19T13:30:55;95377.22;;;38.45
34310;BMP280;61664;48.112;11.662;2023-06-19T13:33:22;95369.25;;;38.61
34310;BMP280;61664;48.112;11.662;2023-06-19T13:35:49;95367.41;;;39.01
34310;BMP280;61664;48.112;11.662;2023-06-19T13:38:17;95370.81;;;39.65
34310;BMP280;61664;48.112;11.662;2023-06-19T13:40:44;95362.81;;;40.23
34310;BMP280;61664;48.112;11.662;2023-06-19T13:43:11;95366.56;;;40.84
34310;BMP280;61664;48.112;11.662;2023-06-19T13:45:38;95361.06;;;41.46
34310;BMP280;61664;48.112;11.662;2023-06-19T13:48:05;95365.44;;;42.37
34310;BMP280;61664;48.112;11.662;2023-06-19T13:50:33;95362.47;;;43.23
34310;BMP280;61664;48.112;11.662;2023-06-19T13:53:01;95359.84;;;44.14
34310;BMP280;61664;48.112;11.662;2023-06-19T13:55:28;95361.78;;;45.10
34310;BMP280;61664;48.112;11.662;2023-06-19T13:57:55;95354.19;;;45.95
34310;BMP280;61664;48.112;11.662;2023-06-19T14:00:22;95347.31;;;46.51
34310;BMP280;61664;48.112;11.662;2023-06-19T14:02:49;95350.81;;;47.15
34310;BMP280;61664;48.112;11.662;2023-06-19T14:05:17;95359.91;;;47.70
34310;BMP280;61664;48.112;11.662;2023-06-19T14:07:44;95349.94;;;48.16
34310;BMP280;61664;48.112;11.662;2023-06-19T14:10:11;95345.59;;;48.58
34310;BMP280;61664;48.112;11.662;2023-06-19T14:12:39;95341.34;;;48.93